createdAt,value
2023-05-13T00:02:17.174Z,13.80
2023-05-13T00:04:44.397Z,13.57
2023-05-13T00:07:11.459Z,14.10
2023-05-13T00:09:38.598Z,14.95
2023-05-13T00:12:05.821Z,15.45
2023-05-13T00:14:32.877Z,14.60
2023-05-13T00:17:02.083Z,14.63
2023-05-13T00:19:29.142Z,14.05
2023-05-13T00:21:56.138Z,14.45
2023-05-13T00:24:23.172Z,15.07
2023-05-13T00:26:50.279Z,13.38
2023-05-13T00:29:17.357Z,15.05
2023-05-13T00:31:44.475Z,15.00
2023-05-13T00:34:11.928Z,14.48
2023-05-13T00:36:38.983Z,14.80
2023-05-13T00:39:06.039Z,14.70
2023-05-13T00:41:33.075Z,16.98
2023-05-13T00:44:00.362Z,16.92
2023-05-13T00:46:31.069Z,15.15
2023-05-13T00:48:58.211Z,16.77
2023-05-13T00:51:26.644Z,19.55
2023-05-13T00:53:53.859Z,15.52
2023-05-13T00:56:21.898Z,17.45
2023-05-13T00:58:49.919Z,16.63
2023-05-13T01:01:26.052Z,16.70
2023-05-13T01:04:12.006Z,16.95
2023-05-13T01:06:58.170Z,17.95
2023-05-13T01:09:31.660Z,18.77
2023-05-13T01:12:02.459Z,16.40
2023-05-13T01:14:33.844Z,18.85
2023-05-13T01:17:14.924Z,19.52
2023-05-13T01:19:51.421Z,18.27
2023-05-13T01:22:18.616Z,20.33
2023-05-13T01:24:45.962Z,19.35
2023-05-13T01:27:13.800Z,18.60
2023-05-13T01:29:41.070Z,19.73
2023-05-13T01:32:09.662Z,20.48
2023-05-13T01:34:37.038Z,19.95
2023-05-13T01:37:04.614Z,19.25
2023-05-13T01:39:32.557Z,22.10
2023-05-13T01:41:59.661Z,20.33
2023-05-13T01:44:29.619Z,18.20
2023-05-13T01:46:57.005Z,21.80
2023-05-13T01:49:24.234Z,21.58
2023-05-13T01:51:51.411Z,21.23
2023-05-13T01:54:18.402Z,19.67
2023-05-13T01:56:45.826Z,22.30
2023-05-13T01:59:14.794Z,21.23
2023-05-13T02:01:41.912Z,23.25
2023-05-13T02:04:08.952Z,20.67
2023-05-13T02:06:36.170Z,19.65
2023-05-13T02:09:03.241Z,21.52
2023-05-13T02:11:30.320Z,19.10
2023-05-13T02:13:57.417Z,22.38
2023-05-13T02:16:24.505Z,21.98
2023-05-13T02:18:51.657Z,21.20
2023-05-13T02:21:18.789Z,21.65
2023-05-13T02:23:45.850Z,20.55
2023-05-13T02:26:13.044Z,22.35
2023-05-13T02:28:40.055Z,22.60
2023-05-13T02:31:07.521Z,25.98
2023-05-13T02:33:34.536Z,22.70
2023-05-13T02:36:01.664Z,21.10
2023-05-13T02:38:28.772Z,23.33
2023-05-13T02:40:55.843Z,23.98
2023-05-13T02:43:24.764Z,21.67
2023-05-13T02:45:51.817Z,23.95
2023-05-13T02:48:19.005Z,22.17
2023-05-13T02:50:46.149Z,24.58
2023-05-13T02:53:13.246Z,24.88
2023-05-13T02:55:40.273Z,23.67
2023-05-13T02:58:07.337Z,23.70
2023-05-13T03:00:34.393Z,25.35
2023-05-13T03:03:01.490Z,24.45
2023-05-13T03:05:29.902Z,23.75
2023-05-13T03:07:57.852Z,28.48
2023-05-13T03:10:25.063Z,24.98
2023-05-13T03:12:52.127Z,27.30
2023-05-13T03:15:19.244Z,25.52
2023-05-13T03:17:46.378Z,25.85
2023-05-13T03:20:13.589Z,26.02
2023-05-13T03:22:40.924Z,25.00
2023-05-13T03:25:08.260Z,25.20
2023-05-13T03:27:35.449Z,27.75
2023-05-13T03:30:02.494Z,26.35
2023-05-13T03:32:31.886Z,26.63
2023-05-13T03:35:00.909Z,23.88
2023-05-13T03:37:28.005Z,24.05
2023-05-13T03:39:55.037Z,23.73
2023-05-13T03:42:23.506Z,23.98
2023-05-13T03:44:51.195Z,27.25
2023-05-13T03:47:18.348Z,25.98
2023-05-13T03:49:47.882Z,22.25
2023-05-13T03:52:16.553Z,23.58
2023-05-13T03:54:43.641Z,25.77
2023-05-13T03:57:10.641Z,23.30
2023-05-13T03:59:37.705Z,23.92
2023-05-13T04:02:04.911Z,24.40
2023-05-13T04:04:31.962Z,22.90
2023-05-13T04:06:59.023Z,22.50
2023-05-13T04:09:26.082Z,23.50
2023-05-13T04:11:53.129Z,27.90
2023-05-13T04:14:20.193Z,24.70
2023-05-13T04:16:47.381Z,23.23
2023-05-13T04:19:14.498Z,23.65
2023-05-13T04:21:41.589Z,24.35
2023-05-13T04:24:08.732Z,24.42
2023-05-13T04:26:35.751Z,23.40
2023-05-13T04:29:02.771Z,28.02
2023-05-13T04:31:29.880Z,24.20
2023-05-13T04:33:57.417Z,24.35
2023-05-13T04:36:24.442Z,25.48
2023-05-13T04:38:51.527Z,23.92
2023-05-13T04:41:18.564Z,27.17
2023-05-13T04:43:45.730Z,24.30
2023-05-13T04:46:12.855Z,24.98
2023-05-13T04:48:39.988Z,29.35
2023-05-13T04:51:07.530Z,26.50
2023-05-13T04:53:35.325Z,27.05
2023-05-13T04:56:02.383Z,26.85
2023-05-13T04:58:29.542Z,25.55
2023-05-13T05:00:57.394Z,25.38
2023-05-13T05:03:25.013Z,26.77
2023-05-13T05:05:52.170Z,25.42
2023-05-13T05:08:19.241Z,26.02
2023-05-13T05:10:46.278Z,27.70
2023-05-13T05:13:13.334Z,25.02
2023-05-13T05:15:41.419Z,25.88
2023-05-13T05:18:08.756Z,26.50
2023-05-13T05:20:36.131Z,27.50
2023-05-13T05:23:03.496Z,24.42
2023-05-13T05:25:30.751Z,27.15
2023-05-13T05:27:58.076Z,27.92
2023-05-13T05:30:25.207Z,27.05
2023-05-13T05:32:52.494Z,27.17
2023-05-13T05:35:19.876Z,26.67
2023-05-13T05:37:46.977Z,25.92
2023-05-13T05:40:14.568Z,24.55
2023-05-13T05:42:41.704Z,22.63
2023-05-13T05:45:08.929Z,28.50
2023-05-13T05:47:36.139Z,27.20
2023-05-13T05:50:03.437Z,24.73
2023-05-13T05:52:30.472Z,26.60
2023-05-13T05:54:57.547Z,24.63
2023-05-13T05:57:24.609Z,27.65
2023-05-13T05:59:51.884Z,24.42
2023-05-13T06:02:18.978Z,23.42
2023-05-13T06:04:46.235Z,24.15
2023-05-13T06:07:13.465Z,23.90
2023-05-13T06:09:40.716Z,22.95
2023-05-13T06:12:08.468Z,22.70
2023-05-13T06:14:35.667Z,24.63
2023-05-13T06:17:02.692Z,22.95
2023-05-13T06:19:29.789Z,22.58
2023-05-13T06:21:56.816Z,22.13
2023-05-13T06:24:23.841Z,22.38
2023-05-13T06:26:50.896Z,22.05
2023-05-13T06:29:17.957Z,21.70
2023-05-13T06:31:45.147Z,19.33
2023-05-13T06:34:16.429Z,24.27
2023-05-13T06:36:44.091Z,21.38
2023-05-13T06:39:11.779Z,20.17
2023-05-13T06:41:39.586Z,21.63
2023-05-13T06:44:06.959Z,18.60
2023-05-13T06:46:34.438Z,19.85
2023-05-13T06:49:01.490Z,18.85
2023-05-13T06:51:28.675Z,21.27
2023-05-13T06:53:55.824Z,18.33
2023-05-13T06:56:23.020Z,21.80
2023-05-13T06:58:50.526Z,19.20
2023-05-13T07:01:19.896Z,19.45
2023-05-13T07:03:47.065Z,20.27
2023-05-13T07:06:14.092Z,18.73
2023-05-13T07:08:41.116Z,18.63
2023-05-13T07:11:08.151Z,20.08
2023-05-13T07:13:35.362Z,20.95
2023-05-13T07:16:02.393Z,18.60
2023-05-13T07:18:29.920Z,18.05
2023-05-13T07:20:57.157Z,19.05
2023-05-13T07:23:24.645Z,19.70
2023-05-13T07:25:52.417Z,21.20
2023-05-13T07:28:22.310Z,18.80
2023-05-13T07:30:49.498Z,20.02
2023-05-13T07:33:16.565Z,19.15
2023-05-13T07:35:43.615Z,21.40
2023-05-13T07:38:11.282Z,19.17
2023-05-13T07:40:38.853Z,20.00
2023-05-13T07:43:06.135Z,23.13
2023-05-13T07:45:34.230Z,22.05
2023-05-13T07:48:01.375Z,20.67
2023-05-13T07:50:28.450Z,20.25
2023-05-13T07:52:55.546Z,22.63
2023-05-13T07:55:22.893Z,20.80
2023-05-13T07:57:50.117Z,20.85
2023-05-13T08:00:17.372Z,21.33
2023-05-13T08:02:44.587Z,23.05
2023-05-13T08:05:12.401Z,20.73
2023-05-13T08:07:39.525Z,20.95
2023-05-13T08:10:06.976Z,21.10
2023-05-13T08:12:33.997Z,20.95
2023-05-13T08:15:03.960Z,21.45
2023-05-13T08:17:31.034Z,22.67
2023-05-13T08:19:59.453Z,21.75
2023-05-13T08:22:27.480Z,22.65
2023-05-13T08:24:54.537Z,22.15
2023-05-13T08:27:21.732Z,20.48
2023-05-13T08:29:48.755Z,22.27
2023-05-13T08:32:15.980Z,23.05
2023-05-13T08:34:43.255Z,20.40
2023-05-13T08:37:10.432Z,21.42
2023-05-13T08:39:37.483Z,19.02
2023-05-13T08:42:04.874Z,17.73
2023-05-13T08:44:33.214Z,18.20
2023-05-13T08:47:03.023Z,19.35
2023-05-13T08:49:30.387Z,19.23
2023-05-13T08:51:57.426Z,18.35
2023-05-13T08:54:25.026Z,18.10
2023-05-13T08:56:52.060Z,18.77
2023-05-13T08:59:19.116Z,20.85
2023-05-13T09:01:46.588Z,20.45
2023-05-13T09:04:13.699Z,20.83
2023-05-13T09:06:40.715Z,22.67
2023-05-13T09:09:08.055Z,21.20
2023-05-13T09:11:35.331Z,22.52
2023-05-13T09:14:03.724Z,18.83
2023-05-13T09:16:32.460Z,21.30
2023-05-13T09:19:00.631Z,20.08
2023-05-13T09:21:31.834Z,19.85
2023-05-13T09:24:13.299Z,18.25
2023-05-13T09:26:41.050Z,17.92
2023-05-13T09:29:20.257Z,22.23
2023-05-13T09:31:49.284Z,20.88
2023-05-13T09:34:25.144Z,20.70
2023-05-13T09:37:01.514Z,21.13
2023-05-13T09:39:28.855Z,20.30
2023-05-13T09:41:56.394Z,19.00
2023-05-13T09:44:23.762Z,20.50
2023-05-13T09:46:54.518Z,21.30
2023-05-13T09:49:25.138Z,21.13
2023-05-13T09:51:52.195Z,21.80
2023-05-13T09:54:19.689Z,21.65
2023-05-13T09:56:46.796Z,20.98
2023-05-13T09:59:15.881Z,20.08
2023-05-13T10:01:43.320Z,20.05
2023-05-13T10:04:10.482Z,20.90
2023-05-13T10:06:40.146Z,20.23
2023-05-13T10:09:07.497Z,19.23
2023-05-13T10:11:36.474Z,16.52
2023-05-13T10:14:07.794Z,18.77
2023-05-13T10:16:34.998Z,16.15
2023-05-13T10:19:04.056Z,17.13
2023-05-13T10:21:31.309Z,16.77
2023-05-13T10:23:58.515Z,17.35
2023-05-13T10:26:25.925Z,19.35
2023-05-13T10:28:54.078Z,18.42
2023-05-13T10:31:21.196Z,18.75
2023-05-13T10:33:48.342Z,18.80
2023-05-13T10:36:34.290Z,14.85
2023-05-13T10:39:01.416Z,14.88
2023-05-13T10:41:40.171Z,15.70
2023-05-13T10:44:09.295Z,14.05
2023-05-13T10:46:39.618Z,13.63
2023-05-13T10:49:06.971Z,13.82
2023-05-13T10:51:34.142Z,14.77
2023-05-13T10:54:01.336Z,14.43
2023-05-13T10:56:29.087Z,13.88
2023-05-13T10:59:03.141Z,11.80
2023-05-13T11:01:43.858Z,11.93
2023-05-13T11:04:15.988Z,11.07
2023-05-13T11:06:44.585Z,10.45
2023-05-13T11:09:15.967Z,12.60
2023-05-13T11:11:47.596Z,12.98
2023-05-13T11:14:18.493Z,11.68
2023-05-13T11:16:46.561Z,10.07
2023-05-13T11:19:21.493Z,14.70
2023-05-13T11:21:50.996Z,12.20
2023-05-13T11:24:18.950Z,12.48
2023-05-13T11:26:46.178Z,13.48
2023-05-13T11:29:13.409Z,12.48
2023-05-13T11:32:00.763Z,10.73
2023-05-13T11:34:28.312Z,11.38
2023-05-13T11:37:04.462Z,10.82
2023-05-13T11:39:32.006Z,10.60
2023-05-13T11:42:01.610Z,11.32
2023-05-13T11:44:28.740Z,10.68
2023-05-13T11:46:57.076Z,10.18
2023-05-13T11:49:51.480Z,11.93
2023-05-13T11:52:20.043Z,12.10
2023-05-13T11:54:57.863Z,11.60
2023-05-13T11:57:28.910Z,9.65
2023-05-13T11:59:56.156Z,10.93
2023-05-13T12:02:24.598Z,9.23
2023-05-13T12:04:53.206Z,10.30
2023-05-13T12:07:21.556Z,9.07
2023-05-13T12:09:49.293Z,7.68
2023-05-13T12:12:16.826Z,9.48
2023-05-13T12:14:46.168Z,7.30
2023-05-13T12:17:16.794Z,8.18
2023-05-13T12:20:05.938Z,9.52
2023-05-13T12:22:33.434Z,8.00
2023-05-13T12:25:02.634Z,7.47
2023-05-13T12:27:29.760Z,7.10
2023-05-13T12:29:56.987Z,6.85
2023-05-13T12:32:25.781Z,6.10
2023-05-13T12:34:52.906Z,8.05
2023-05-13T12:37:20.095Z,8.38
2023-05-13T12:39:47.122Z,6.97
2023-05-13T12:42:17.801Z,7.20
2023-05-13T12:44:45.396Z,5.70
2023-05-13T12:47:15.501Z,6.75
2023-05-13T12:49:52.195Z,5.88
2023-05-13T12:52:19.454Z,6.18
2023-05-13T12:54:46.517Z,7.07
2023-05-13T12:57:13.670Z,4.43
2023-05-13T12:59:40.735Z,6.10
2023-05-13T13:02:07.756Z,5.78
2023-05-13T13:04:34.792Z,5.93
2023-05-13T13:07:02.051Z,5.15
2023-05-13T13:09:29.138Z,6.32
2023-05-13T13:11:56.293Z,6.53
2023-05-13T13:14:26.042Z,7.45
2023-05-13T13:16:53.230Z,5.63
2023-05-13T13:19:20.538Z,6.63
2023-05-13T13:21:47.815Z,6.20
2023-05-13T13:24:14.874Z,5.65
2023-05-13T13:26:41.941Z,7.78
2023-05-13T13:29:09.049Z,5.70
2023-05-13T13:31:36.270Z,6.45
2023-05-13T13:34:04.915Z,6.13
2023-05-13T13:36:32.719Z,5.82
2023-05-13T13:38:59.785Z,8.60
2023-05-13T13:41:26.973Z,6.25
2023-05-13T13:43:54.024Z,6.72
2023-05-13T13:46:21.149Z,5.35
2023-05-13T13:48:48.282Z,6.25
2023-05-13T13:51:15.339Z,7.72
2023-05-13T13:53:42.475Z,8.40
2023-05-13T13:56:09.635Z,9.45
2023-05-13T13:58:36.653Z,5.22
2023-05-13T14:01:04.035Z,7.35
2023-05-13T14:03:31.207Z,7.47
2023-05-13T14:05:58.320Z,6.75
2023-05-13T14:08:25.518Z,5.93
2023-05-13T14:10:52.601Z,5.45
2023-05-13T14:13:19.749Z,7.03
2023-05-13T14:15:46.394Z,5.45
2023-05-13T14:18:13.093Z,5.65
2023-05-13T14:20:40.221Z,6.60
2023-05-13T14:23:06.903Z,4.93
2023-05-13T14:25:33.636Z,4.65
2023-05-13T14:28:00.456Z,6.18
2023-05-13T14:30:27.828Z,5.72
2023-05-13T14:32:54.718Z,5.88
2023-05-13T14:35:21.361Z,6.28
2023-05-13T14:37:48.409Z,4.93
2023-05-13T14:40:15.451Z,5.95
2023-05-13T14:42:42.547Z,4.65
2023-05-13T14:45:12.548Z,4.30
2023-05-13T14:47:42.398Z,5.38
2023-05-13T14:50:09.854Z,5.53
2023-05-13T14:52:36.548Z,2.95
2023-05-13T14:55:03.312Z,4.72
2023-05-13T14:57:29.974Z,4.22
2023-05-13T14:59:58.148Z,3.92
2023-05-13T15:02:26.619Z,5.15
2023-05-13T15:04:53.280Z,4.43
2023-05-13T15:07:21.468Z,4.75
2023-05-13T15:09:48.082Z,3.45
2023-05-13T15:12:14.688Z,5.90
2023-05-13T15:14:41.287Z,4.28
2023-05-13T15:17:11.787Z,4.47
2023-05-13T15:19:39.687Z,2.78
2023-05-13T15:22:06.799Z,3.60
2023-05-13T15:24:33.963Z,3.17
2023-05-13T15:27:03.589Z,3.75
2023-05-13T15:29:30.673Z,3.15
2023-05-13T15:31:57.822Z,3.60
2023-05-13T15:34:24.923Z,4.13
2023-05-13T15:36:53.416Z,4.22
2023-05-13T15:39:20.486Z,3.35
2023-05-13T15:41:47.526Z,4.32
2023-05-13T15:44:14.568Z,3.33
2023-05-13T15:46:42.307Z,5.63
2023-05-13T15:49:09.465Z,4.70
2023-05-13T15:51:36.588Z,11.43
2023-05-13T15:54:03.913Z,4.97
2023-05-13T15:56:30.983Z,5.05
2023-05-13T15:58:58.036Z,4.78
2023-05-13T16:01:25.253Z,4.93
2023-05-13T16:03:52.441Z,5.78
2023-05-13T16:06:19.560Z,4.20
2023-05-13T16:08:47.428Z,5.20
2023-05-13T16:11:14.507Z,5.20
2023-05-13T16:13:41.707Z,5.43
2023-05-13T16:16:08.806Z,10.02
2023-05-13T16:18:35.939Z,5.25
2023-05-13T16:21:03.000Z,5.50
2023-05-13T16:23:30.091Z,4.60
2023-05-13T16:25:57.319Z,4.22
2023-05-13T16:28:24.424Z,5.05
2023-05-13T16:30:52.150Z,4.10
2023-05-13T16:33:19.195Z,4.15
2023-05-13T16:35:46.250Z,4.55
2023-05-13T16:38:13.302Z,3.40
2023-05-13T16:40:41.879Z,4.05
2023-05-13T16:43:08.955Z,4.07
2023-05-13T16:45:36.165Z,4.18
2023-05-13T16:48:04.476Z,3.83
2023-05-13T16:50:31.602Z,3.80
2023-05-13T16:52:58.724Z,3.60
2023-05-13T16:55:26.040Z,5.28
2023-05-13T16:57:53.987Z,3.50
2023-05-13T17:00:21.336Z,4.53
2023-05-13T17:02:48.557Z,5.03
2023-05-13T17:05:15.920Z,1.83
2023-05-13T17:07:42.914Z,2.75
2023-05-13T17:10:10.166Z,2.92
2023-05-13T17:12:37.186Z,2.88
2023-05-13T17:15:04.437Z,3.42
2023-05-13T17:17:31.586Z,2.97
2023-05-13T17:19:58.733Z,7.50
2023-05-13T17:22:25.968Z,8.30
2023-05-13T17:24:53.226Z,4.63
2023-05-13T17:27:21.289Z,2.90
2023-05-13T17:29:48.435Z,8.25
2023-05-13T17:32:15.494Z,4.95
2023-05-13T17:34:42.561Z,4.50
2023-05-13T17:37:09.610Z,4.78
2023-05-13T17:39:36.730Z,3.92
2023-05-13T17:42:03.841Z,4.45
2023-05-13T17:44:30.966Z,2.67
2023-05-13T17:46:58.025Z,5.07
2023-05-13T17:49:25.148Z,4.25
2023-05-13T17:51:52.170Z,2.78
2023-05-13T17:54:19.246Z,4.28
2023-05-13T17:56:46.264Z,4.97
2023-05-13T17:59:13.270Z,3.15
2023-05-13T18:01:40.493Z,4.28
2023-05-13T18:04:07.579Z,3.35
2023-05-13T18:06:34.710Z,4.45
2023-05-13T18:09:02.484Z,3.17
2023-05-13T18:11:29.478Z,4.60
2023-05-13T18:13:56.187Z,4.55
2023-05-13T18:16:22.848Z,4.43
2023-05-13T18:18:49.574Z,3.65
2023-05-13T18:21:16.257Z,3.92
2023-05-13T18:23:45.914Z,5.00
2023-05-13T18:26:12.948Z,7.82
2023-05-13T18:28:42.184Z,4.75
2023-05-13T18:31:09.309Z,4.55
2023-05-13T18:33:36.365Z,4.82
2023-05-13T18:36:03.531Z,3.67
2023-05-13T18:38:30.609Z,2.47
2023-05-13T18:41:02.887Z,3.97
2023-05-13T18:43:30.493Z,5.25
2023-05-13T18:45:58.164Z,2.47
2023-05-13T18:48:25.428Z,4.10
2023-05-13T18:50:53.119Z,5.88
2023-05-13T18:53:20.347Z,4.35
2023-05-13T18:55:47.463Z,4.30
2023-05-13T18:58:14.533Z,6.40
2023-05-13T19:00:41.796Z,7.63
2023-05-13T19:03:09.147Z,7.72
2023-05-13T19:05:36.413Z,5.78
2023-05-13T19:08:05.232Z,4.55
2023-05-13T19:10:39.101Z,4.78
2023-05-13T19:13:07.069Z,7.07
2023-05-13T19:15:34.241Z,6.43
2023-05-13T19:18:01.902Z,5.63
2023-05-13T19:20:29.824Z,8.50
2023-05-13T19:22:56.865Z,8.48
2023-05-13T19:25:23.982Z,10.65
2023-05-13T19:27:51.035Z,7.85
2023-05-13T19:30:18.093Z,10.73
2023-05-13T19:32:45.178Z,8.43
2023-05-13T19:35:12.308Z,8.30
2023-05-13T19:37:39.366Z,5.57
2023-05-13T19:40:07.019Z,7.57
2023-05-13T19:42:34.127Z,5.30
2023-05-13T19:45:01.450Z,6.22
2023-05-13T19:47:30.411Z,6.45
2023-05-13T19:49:57.515Z,6.65
2023-05-13T19:52:24.579Z,6.93
2023-05-13T19:54:51.673Z,5.85
2023-05-13T19:57:18.693Z,5.35
2023-05-13T19:59:47.033Z,3.42
2023-05-13T20:02:14.161Z,2.28
2023-05-13T20:04:41.251Z,3.65
2023-05-13T20:07:09.445Z,2.03
2023-05-13T20:09:37.061Z,3.13
2023-05-13T20:12:04.402Z,3.58
2023-05-13T20:14:47.885Z,2.03
2023-05-13T20:17:18.767Z,1.13
2023-05-13T20:19:47.388Z,2.03
2023-05-13T20:22:15.729Z,1.60
2023-05-13T20:24:43.141Z,1.25
2023-05-13T20:27:10.546Z,2.00
2023-05-13T20:29:38.658Z,1.38
2023-05-13T20:32:06.253Z,1.65
2023-05-13T20:34:33.942Z,1.52
2023-05-13T20:37:01.462Z,1.42
2023-05-13T20:39:28.699Z,1.20
2023-05-13T20:41:56.138Z,2.13
2023-05-13T20:44:23.422Z,2.38
2023-05-13T20:46:50.726Z,4.03
2023-05-13T20:49:18.214Z,1.20
2023-05-13T20:51:46.671Z,1.98
2023-05-13T20:54:14.275Z,1.98
2023-05-13T20:56:41.521Z,2.47
2023-05-13T20:59:08.577Z,2.80
2023-05-13T21:01:36.203Z,3.45
2023-05-13T21:04:05.801Z,2.28
2023-05-13T21:06:33.071Z,3.28
2023-05-13T21:09:00.389Z,2.95
2023-05-13T21:11:27.513Z,4.05
2023-05-13T21:13:54.547Z,3.90
2023-05-13T21:16:22.057Z,4.53
2023-05-13T21:18:49.249Z,2.67
2023-05-13T21:21:16.294Z,4.70
2023-05-13T21:23:44.011Z,4.10
2023-05-13T21:26:11.460Z,5.63
2023-05-13T21:28:38.797Z,4.35
2023-05-13T21:31:06.000Z,2.92
2023-05-13T21:33:33.665Z,3.97
2023-05-13T21:36:00.724Z,3.70
2023-05-13T21:38:28.103Z,3.92
2023-05-13T21:40:55.279Z,3.45
2023-05-13T21:43:22.304Z,4.10
2023-05-13T21:45:49.505Z,7.28
2023-05-13T21:48:16.740Z,9.02
2023-05-13T21:50:43.883Z,9.18
2023-05-13T21:53:10.996Z,10.77
2023-05-13T21:55:38.110Z,10.85
2023-05-13T21:58:05.183Z,10.52
2023-05-13T22:00:32.932Z,15.00
2023-05-13T22:03:01.240Z,15.25
2023-05-13T22:05:28.640Z,14.82
2023-05-13T22:07:55.777Z,16.20
2023-05-13T22:10:22.914Z,18.95
2023-05-13T22:12:50.147Z,16.80
2023-05-13T22:15:17.339Z,17.88
2023-05-13T22:17:44.450Z,16.77
2023-05-13T22:20:11.805Z,17.00
2023-05-13T22:22:38.852Z,17.50
2023-05-13T22:25:06.372Z,17.88
2023-05-13T22:27:33.450Z,16.95
2023-05-13T22:30:00.562Z,19.83
2023-05-13T22:32:27.657Z,17.75
2023-05-13T22:34:54.720Z,19.08
2023-05-13T22:37:21.905Z,20.38
2023-05-13T22:39:49.414Z,21.02
2023-05-13T22:42:16.470Z,19.30
2023-05-13T22:44:43.476Z,21.38
2023-05-13T22:47:10.591Z,19.20
2023-05-13T22:49:37.620Z,20.77
2023-05-13T22:52:04.769Z,19.45
2023-05-13T22:54:31.816Z,21.95
2023-05-13T22:56:59.265Z,20.20
2023-05-13T22:59:26.756Z,21.70
2023-05-13T23:01:53.801Z,22.00
2023-05-13T23:04:20.924Z,20.13
2023-05-13T23:06:48.044Z,21.75
2023-05-13T23:09:15.074Z,21.75
2023-05-13T23:11:42.107Z,21.38
2023-05-13T23:14:09.169Z,24.23
2023-05-13T23:16:36.653Z,22.08
2023-05-13T23:19:03.802Z,20.67
2023-05-13T23:21:31.030Z,23.33
2023-05-13T23:23:58.032Z,22.63
2023-05-13T23:26:25.900Z,23.35
2023-05-13T23:28:52.928Z,22.20
2023-05-13T23:31:19.966Z,22.15
2023-05-13T23:33:47.054Z,20.63
2023-05-13T23:36:15.960Z,22.50
2023-05-13T23:38:42.996Z,22.90
2023-05-13T23:41:10.058Z,22.13
2023-05-13T23:43:37.077Z,21.17
2023-05-13T23:46:04.159Z,20.60
2023-05-13T23:48:31.872Z,20.45
2023-05-13T23:50:58.945Z,22.60
2023-05-13T23:53:25.994Z,21.05
2023-05-13T23:55:53.128Z,20.80
2023-05-13T23:58:20.373Z,21.50
